Altus Air Force Base
KLTS : now visible

Airfield :











YOU CAN JOIN US ON...

 
LOGIN :

Register | Disclaimer

   EN    FR    IT 

 









Legend :    VFR   Marginal VFR   IFR   Intensive IFR   Very Intensive IFR
Visi :
Ceiling :
>= 8 km
>= 3000ft
5 to 8 km
1000 to 3000 ft
1500m to 5 km
500 to 1000 ft
800 to 1500m
200 to 500 ft
< 800m
< 200 ft
Symbols :   Thunderstorms  Fog  Heavy snow  Heavy precipitations  Wind > 20 kt






- Airport Elevation : 1382 ft


KLTS - Altus Air Force Base

CURRENT METAR :
  • 071656Z AUTO 17017G23KT 10SM CLR 26/14 A3009 RMK AO2 PK WND 19028/30 SLP179 T02590137 $

EXPIRED METARs :
  • 071556Z 17017G22KT 10SM CLR 24/14 A3011 RMK AO2A SLP187 T02430135 $
  • 071456Z AUTO 16015KT 10SM CLR 22/13 A3013 RMK AO2 SLP193 T02170128 58007 $

TAF TAF KLTS
Valid from the 07 at 09:00 until the 08 at 15:00 UTC


070900Z 0709/0815 11006KT 9999 FEW050 510602 QNH3012INS
BECMG 0714/0715 18020G30KT 9999 FEW140 510003 QNH2987INS
BECMG 0802/0803 16009KT 9999 SKC 510052 QNH2980INS
TEMPO 0809/0812 9000 -SHRA SCT015 BKN130
BECMG 0814/0815 20010G20KT 9999 FEW100 510053 QNH2976INS TX30/0720Z TN12/0711Z
KZFW FIR / North America



MET'MAP, your aeronautical weather chart ! - Copyright ORBIFLY December 2007 - Disclaimer

ORBIFLY MET'MAP TEAM :

Programming & Development : Alexandra Zaïnal
Concept & original design : Baudouin d'Aumeries
Assistance for programming : Marc-Olivier Méhu
Technical & hardware support : Manuel Goepfert

Contact : metmap@orbifly.com




SOURCES & CREDITS :

   NOAA       Earth
Advisory